Time;durP1;ratioP1;P1;durP2;ratioP2;P2;SDS_P1;SDS_P2;PMS_P1;PMS_P2;Temp;Humidity;BMP_temperature;BMP_pressure;BME280_temperature;BME280_humidity;BME280_pressure;Samples;Min_cycle;Max_cycle;Signal;HPM_P1;HPM_P2
2023/03/30 00:00:17;;;;;;;15.32;2.00;;;;;;;;;;5051618;28;20025;-79
2023/03/30 00:02:47;;;;;;;10.77;2.10;;;;;;;;;;5039301;28;20432;-79
2023/03/30 00:05:14;;;;;;;8.57;1.60;;;;;;;;;;5047989;28;20095;-79
2023/03/30 00:07:44;;;;;;;16.40;1.73;;;;;;;;;;5042574;28;20060;-79
2023/03/30 00:10:16;;;;;;;18.33;2.30;;;;;;;;;;5036843;28;20112;-79
2023/03/30 00:12:42;;;;;;;9.05;1.85;;;;;;;;;;5039337;28;20129;-79
2023/03/30 00:15:09;;;;;;;16.85;2.10;;;;;;;;;;5042712;28;20034;-79
2023/03/30 00:17:35;;;;;;;13.02;1.75;;;;;;;;;;5040884;28;20034;-79
2023/03/30 00:20:02;;;;;;;9.85;1.90;;;;;;;;;;5038790;28;20037;-79
2023/03/30 00:22:28;;;;;;;12.93;2.13;;;;;;;;;;5036973;28;20037;-79
2023/03/30 00:24:53;;;;;;;12.45;1.50;;;;;;;;;;5050258;28;20033;-79
2023/03/30 00:27:19;;;;;;;13.45;2.38;;;;;;;;;;5035389;28;20033;-79
2023/03/30 00:29:44;;;;;;;19.80;1.88;;;;;;;;;;5046434;28;20158;-79
2023/03/30 00:32:09;;;;;;;15.48;2.33;;;;;;;;;;5038093;28;20462;-79
2023/03/30 00:34:35;;;;;;;10.38;1.88;;;;;;;;;;5043890;28;20041;-78
2023/03/30 00:37:01;;;;;;;23.88;2.75;;;;;;;;;;5044042;28;20035;-78
2023/03/30 00:39:27;;;;;;;11.50;1.75;;;;;;;;;;5050788;28;20048;-77
2023/03/30 00:41:52;;;;;;;15.50;2.10;;;;;;;;;;5037463;28;20037;-78
2023/03/30 00:44:55;;;;;;;16.33;2.05;;;;;;;;;;5040943;28;20043;-79
2023/03/30 00:47:20;;;;;;;13.48;2.15;;;;;;;;;;5036203;28;20167;-78
2023/03/30 00:49:46;;;;;;;15.75;1.77;;;;;;;;;;5038016;28;20108;-78
2023/03/30 00:52:12;;;;;;;22.88;3.45;;;;;;;;;;5040960;28;20040;-77
2023/03/30 00:54:38;;;;;;;18.92;2.60;;;;;;;;;;5042585;28;20490;-77
2023/03/30 00:57:04;;;;;;;13.70;2.42;;;;;;;;;;5037775;28;20388;-78
2023/03/30 00:59:30;;;;;;;15.93;2.90;;;;;;;;;;5047715;28;20029;-77
2023/03/30 01:01:55;;;;;;;19.77;1.88;;;;;;;;;;5044710;28;20044;-78
2023/03/30 01:04:20;;;;;;;16.27;2.60;;;;;;;;;;5049460;28;20520;-78
2023/03/30 01:06:47;;;;;;;19.38;2.65;;;;;;;;;;5042179;28;20037;-79
2023/03/30 01:09:14;;;;;;;12.48;1.85;;;;;;;;;;5041178;28;20075;-77
2023/03/30 01:11:39;;;;;;;20.38;2.75;;;;;;;;;;5047054;28;20041;-77
2023/03/30 01:14:07;;;;;;;11.68;2.17;;;;;;;;;;5039078;28;20064;-78
2023/03/30 01:16:36;;;;;;;14.38;2.17;;;;;;;;;;5038250;28;20083;-78
2023/03/30 01:19:23;;;;;;;17.38;2.30;;;;;;;;;;5037293;28;20048;-78
2023/03/30 01:22:13;;;;;;;12.13;1.85;;;;;;;;;;5045056;28;20073;-77
2023/03/30 01:25:02;;;;;;;15.10;1.92;;;;;;;;;;5044145;28;20048;-77
2023/03/30 01:27:47;;;;;;;16.42;2.15;;;;;;;;;;5029102;28;20481;-77
2023/03/30 01:30:21;;;;;;;11.38;2.35;;;;;;;;;;5029631;28;20083;-77
2023/03/30 01:33:12;;;;;;;26.63;2.50;;;;;;;;;;5034740;28;20037;-77
2023/03/30 01:35:47;;;;;;;19.55;2.55;;;;;;;;;;5041888;28;20389;-78
2023/03/30 01:38:37;;;;;;;17.48;2.38;;;;;;;;;;5038523;28;20124;-77
2023/03/30 01:41:10;;;;;;;16.08;2.72;;;;;;;;;;5036090;28;20521;-77
2023/03/30 01:43:47;;;;;;;18.17;2.22;;;;;;;;;;5038984;28;20068;-77
2023/03/30 01:46:29;;;;;;;20.13;2.05;;;;;;;;;;5035803;28;20064;-77
2023/03/30 01:49:18;;;;;;;14.40;1.90;;;;;;;;;;5036656;28;20041;-77
2023/03/30 01:51:52;;;;;;;13.77;2.13;;;;;;;;;;5039481;28;20033;-77
2023/03/30 01:54:31;;;;;;;21.73;2.22;;;;;;;;;;5044769;28;20048;-77
2023/03/30 01:57:17;;;;;;;23.88;2.80;;;;;;;;;;5040773;28;20041;-77
2023/03/30 01:59:53;;;;;;;18.50;2.63;;;;;;;;;;5043755;28;20143;-77
2023/03/30 02:02:20;;;;;;;17.20;2.58;;;;;;;;;;5032105;28;20026;-78
2023/03/30 02:04:47;;;;;;;14.35;1.85;;;;;;;;;;5033102;28;20037;-77
2023/03/30 02:07:20;;;;;;;21.83;2.63;;;;;;;;;;5036753;28;20528;-77
2023/03/30 02:09:47;;;;;;;13.30;1.83;;;;;;;;;;5038812;28;20041;-77
2023/03/30 02:12:12;;;;;;;21.25;2.47;;;;;;;;;;5034952;28;20029;-77
2023/03/30 02:14:40;;;;;;;19.77;3.15;;;;;;;;;;5040198;28;20385;-78
2023/03/30 02:17:28;;;;;;;18.50;2.60;;;;;;;;;;5036671;28;20048;-78
2023/03/30 02:19:55;;;;;;;16.45;1.85;;;;;;;;;;5041141;28;20033;-78
2023/03/30 02:22:22;;;;;;;18.17;2.42;;;;;;;;;;5040783;28;20065;-78
2023/03/30 02:24:50;;;;;;;24.70;2.60;;;;;;;;;;5049881;28;20029;-78
2023/03/30 02:27:15;;;;;;;29.20;2.72;;;;;;;;;;5042054;28;20091;-77
2023/03/30 02:29:43;;;;;;;19.85;3.20;;;;;;;;;;5049213;28;20041;-78
2023/03/30 02:32:18;;;;;;;17.95;2.20;;;;;;;;;;5040879;28;20064;-78
2023/03/30 02:34:56;;;;;;;22.88;3.72;;;;;;;;;;5039320;28;20120;-77
2023/03/30 02:37:35;;;;;;;23.13;2.30;;;;;;;;;;5038671;28;20469;-78
2023/03/30 02:40:21;;;;;;;14.90;2.55;;;;;;;;;;5048821;28;20042;-77
2023/03/30 02:43:11;;;;;;;14.82;1.98;;;;;;;;;;5041252;28;20037;-78
2023/03/30 02:46:06;;;;;;;26.85;2.88;;;;;;;;;;5042895;28;20401;-78
2023/03/30 02:48:50;;;;;;;21.33;2.47;;;;;;;;;;5048795;28;20038;-78
2023/03/30 02:51:32;;;;;;;18.80;2.60;;;;;;;;;;5034337;28;20069;-78
2023/03/30 02:54:22;;;;;;;22.98;3.20;;;;;;;;;;5031744;28;20037;-78
2023/03/30 02:57:05;;;;;;;22.60;3.42;;;;;;;;;;5035821;28;20040;-78
2023/03/30 02:59:53;;;;;;;18.52;2.70;;;;;;;;;;5035805;28;20029;-77
2023/03/30 03:02:23;;;;;;;21.25;2.75;;;;;;;;;;5035907;28;20041;-78
2023/03/30 03:04:51;;;;;;;18.70;3.30;;;;;;;;;;5038240;28;20063;-78
2023/03/30 03:07:17;;;;;;;22.73;2.85;;;;;;;;;;5039145;28;20056;-78
2023/03/30 03:09:43;;;;;;;13.82;2.53;;;;;;;;;;5044225;28;20551;-78
2023/03/30 03:12:08;;;;;;;20.55;2.75;;;;;;;;;;5038626;28;20057;-78
2023/03/30 03:14:33;;;;;;;21.95;3.20;;;;;;;;;;5037523;28;20108;-78
2023/03/30 03:16:59;;;;;;;23.65;3.28;;;;;;;;;;5034351;28;20393;-78
2023/03/30 03:19:24;;;;;;;29.17;3.50;;;;;;;;;;5037699;28;20096;-78
2023/03/30 03:21:50;;;;;;;24.67;2.88;;;;;;;;;;5035546;28;20076;-77
2023/03/30 03:24:17;;;;;;;33.78;3.13;;;;;;;;;;5040824;28;20037;-78
2023/03/30 03:26:43;;;;;;;29.30;3.70;;;;;;;;;;5042192;28;20116;-78
2023/03/30 03:29:08;;;;;;;31.50;3.15;;;;;;;;;;5040542;28;20042;-78
2023/03/30 03:31:34;;;;;;;28.73;4.15;;;;;;;;;;5031083;28;20049;-77
2023/03/30 03:34:00;;;;;;;19.77;3.72;;;;;;;;;;5037604;28;20103;-78
2023/03/30 03:36:26;;;;;;;31.90;3.22;;;;;;;;;;5039311;28;20072;-78
2023/03/30 03:38:51;;;;;;;28.23;3.25;;;;;;;;;;5039962;28;20392;-77
2023/03/30 03:41:16;;;;;;;20.33;3.13;;;;;;;;;;5038623;28;20030;-77
2023/03/30 03:43:42;;;;;;;19.45;2.60;;;;;;;;;;5037763;28;20036;-78
2023/03/30 03:46:08;;;;;;;26.95;3.03;;;;;;;;;;5032621;28;20042;-79
2023/03/30 03:48:33;;;;;;;21.40;2.67;;;;;;;;;;5039766;28;20087;-78
2023/03/30 03:50:58;;;;;;;27.65;3.50;;;;;;;;;;5041046;28;20048;-78
2023/03/30 03:53:26;;;;;;;21.20;2.45;;;;;;;;;;5042811;28;20040;-78
2023/03/30 03:55:52;;;;;;;26.20;3.72;;;;;;;;;;5039707;28;20049;-79
2023/03/30 03:58:17;;;;;;;24.90;3.45;;;;;;;;;;5038572;28;20116;-78
2023/03/30 04:00:43;;;;;;;38.50;4.40;;;;;;;;;;5036551;28;20048;-78
2023/03/30 04:03:10;;;;;;;20.13;2.20;;;;;;;;;;5035102;28;20041;-79
2023/03/30 04:05:36;;;;;;;37.58;3.72;;;;;;;;;;5045801;28;20489;-77
2023/03/30 04:08:01;;;;;;;23.55;4.10;;;;;;;;;;5046961;28;20044;-77
2023/03/30 04:10:27;;;;;;;23.67;3.30;;;;;;;;;;5045046;28;20037;-78
2023/03/30 04:12:56;;;;;;;29.52;3.55;;;;;;;;;;5038597;28;20045;-78
2023/03/30 04:15:22;;;;;;;28.30;3.88;;;;;;;;;;5041211;28;20472;-77
2023/03/30 04:17:48;;;;;;;31.45;3.35;;;;;;;;;;5042114;28;20025;-77
2023/03/30 04:20:14;;;;;;;26.35;3.65;;;;;;;;;;5038584;28;20132;-78
2023/03/30 04:22:45;;;;;;;28.15;3.30;;;;;;;;;;5037971;28;20034;-78
2023/03/30 04:25:13;;;;;;;18.30;2.97;;;;;;;;;;5040726;28;20079;-78
2023/03/30 04:27:41;;;;;;;20.65;3.22;;;;;;;;;;5036668;28;20072;-78
2023/03/30 04:30:08;;;;;;;29.98;4.50;;;;;;;;;;5040477;28;20049;-78
2023/03/30 04:32:33;;;;;;;23.42;3.65;;;;;;;;;;5030035;28;20048;-78
2023/03/30 04:35:00;;;;;;;37.80;3.80;;;;;;;;;;5046623;28;20048;-78
2023/03/30 04:37:29;;;;;;;22.42;2.60;;;;;;;;;;5049516;28;20036;-77
2023/03/30 04:39:58;;;;;;;25.17;3.03;;;;;;;;;;5053199;28;20036;-78
2023/03/30 04:42:29;;;;;;;28.77;3.08;;;;;;;;;;5039034;28;20045;-78
2023/03/30 04:44:58;;;;;;;27.42;3.17;;;;;;;;;;5044440;28;20542;-78
2023/03/30 04:47:25;;;;;;;19.15;4.38;;;;;;;;;;5041427;28;20045;-77
2023/03/30 04:49:51;;;;;;;19.77;2.67;;;;;;;;;;5045120;28;20041;-77
2023/03/30 04:52:16;;;;;;;26.42;3.20;;;;;;;;;;5037465;28;20476;-78
2023/03/30 04:54:42;;;;;;;24.83;3.05;;;;;;;;;;5048575;28;20061;-78
2023/03/30 04:57:07;;;;;;;31.25;3.90;;;;;;;;;;5030811;28;20489;-77
2023/03/30 04:59:33;;;;;;;27.38;3.40;;;;;;;;;;5047372;28;20040;-78
2023/03/30 05:01:58;;;;;;;24.92;4.28;;;;;;;;;;5041952;28;20038;-77
2023/03/30 05:04:23;;;;;;;33.80;3.67;;;;;;;;;;5051077;28;20040;-78
2023/03/30 05:06:49;;;;;;;28.83;3.95;;;;;;;;;;5047178;28;20041;-77
2023/03/30 05:09:15;;;;;;;26.40;3.20;;;;;;;;;;5041240;28;20127;-77
2023/03/30 05:11:40;;;;;;;24.50;3.88;;;;;;;;;;5039472;28;20059;-78
2023/03/30 05:14:06;;;;;;;23.08;3.28;;;;;;;;;;5045680;28;20033;-77
2023/03/30 05:16:31;;;;;;;19.85;2.63;;;;;;;;;;5046604;28;20087;-77
2023/03/30 05:18:57;;;;;;;18.77;2.15;;;;;;;;;;5038903;28;20107;-77
2023/03/30 05:21:22;;;;;;;28.08;3.67;;;;;;;;;;5046337;28;20411;-78
2023/03/30 05:23:48;;;;;;;25.85;4.63;;;;;;;;;;5035480;28;20440;-77
2023/03/30 05:26:13;;;;;;;16.40;2.60;;;;;;;;;;5050164;28;20068;-77
2023/03/30 05:28:39;;;;;;;28.55;3.13;;;;;;;;;;5037980;28;20029;-77
2023/03/30 05:31:05;;;;;;;23.63;4.20;;;;;;;;;;5047048;28;20040;-78
2023/03/30 05:33:31;;;;;;;25.30;3.72;;;;;;;;;;5038188;28;20041;-77
2023/03/30 05:35:56;;;;;;;26.42;3.90;;;;;;;;;;5042597;28;20095;-78
2023/03/30 05:38:21;;;;;;;21.98;3.63;;;;;;;;;;5039667;28;20473;-78
2023/03/30 05:40:51;;;;;;;31.58;5.82;;;;;;;;;;5039221;28;20084;-77
2023/03/30 05:43:16;;;;;;;22.10;4.63;;;;;;;;;;5037070;28;20029;-78
2023/03/30 05:45:42;;;;;;;24.42;3.67;;;;;;;;;;5044395;28;20044;-78
2023/03/30 05:48:08;;;;;;;18.17;2.72;;;;;;;;;;5035785;28;20037;-78
2023/03/30 05:50:33;;;;;;;21.92;2.88;;;;;;;;;;5042995;28;20476;-78
2023/03/30 05:52:59;;;;;;;23.42;3.20;;;;;;;;;;5043090;28;20094;-78
2023/03/30 05:55:24;;;;;;;21.85;2.97;;;;;;;;;;5048912;28;20053;-78
2023/03/30 05:57:50;;;;;;;22.45;2.95;;;;;;;;;;5043106;28;20087;-78
2023/03/30 06:00:16;;;;;;;25.30;3.55;;;;;;;;;;5044358;28;20033;-78
2023/03/30 06:02:41;;;;;;;24.63;3.25;;;;;;;;;;5035160;28;20042;-78
2023/03/30 06:05:07;;;;;;;20.83;2.90;;;;;;;;;;5044144;28;20424;-78
2023/03/30 06:07:32;;;;;;;22.45;2.85;;;;;;;;;;5039125;28;20481;-78
2023/03/30 06:10:00;;;;;;;26.67;2.95;;;;;;;;;;5044389;28;20041;-78
2023/03/30 06:12:25;;;;;;;16.35;3.35;;;;;;;;;;5046160;28;20049;-77
2023/03/30 06:14:51;;;;;;;26.40;3.15;;;;;;;;;;5041664;28;20084;-78
2023/03/30 06:17:16;;;;;;;25.15;3.72;;;;;;;;;;5037706;28;20057;-78
2023/03/30 06:19:42;;;;;;;33.25;4.68;;;;;;;;;;5042891;28;20424;-78
2023/03/30 06:22:08;;;;;;;36.33;4.68;;;;;;;;;;5033581;28;20037;-78
2023/03/30 06:24:33;;;;;;;27.38;3.25;;;;;;;;;;5038954;28;20046;-78
2023/03/30 06:27:00;;;;;;;35.30;3.78;;;;;;;;;;5040639;28;20029;-78
2023/03/30 06:29:26;;;;;;;24.52;3.60;;;;;;;;;;5036602;28;20401;-78
2023/03/30 06:31:52;;;;;;;26.17;2.60;;;;;;;;;;5037372;28;20034;-78
2023/03/30 06:34:17;;;;;;;24.30;3.38;;;;;;;;;;5046320;28;20033;-79
2023/03/30 06:36:44;;;;;;;24.85;2.45;;;;;;;;;;5040613;28;20123;-79
2023/03/30 06:39:10;;;;;;;22.38;2.60;;;;;;;;;;5039245;28;20065;-78
2023/03/30 06:41:36;;;;;;;20.42;2.88;;;;;;;;;;5039739;28;20133;-79
2023/03/30 06:44:01;;;;;;;25.35;3.67;;;;;;;;;;5042641;28;20520;-78
2023/03/30 06:46:26;;;;;;;29.73;3.50;;;;;;;;;;5038448;28;20048;-78
2023/03/30 06:48:52;;;;;;;30.67;3.05;;;;;;;;;;5037926;28;20468;-79
2023/03/30 06:51:18;;;;;;;21.83;3.05;;;;;;;;;;5044198;28;20040;-79
2023/03/30 06:53:44;;;;;;;20.50;2.47;;;;;;;;;;5038789;28;20037;-78
2023/03/30 06:56:10;;;;;;;11.35;2.22;;;;;;;;;;5035869;28;20071;-78
2023/03/30 06:58:36;;;;;;;22.42;3.10;;;;;;;;;;5040673;28;20087;-78
2023/03/30 07:01:12;;;;;;;31.42;2.88;;;;;;;;;;5039206;28;20983;-79
2023/03/30 07:03:38;;;;;;;21.90;4.45;;;;;;;;;;5035885;28;20033;-78
2023/03/30 07:06:04;;;;;;;18.75;3.17;;;;;;;;;;5037220;28;20485;-78
2023/03/30 07:08:29;;;;;;;25.63;3.50;;;;;;;;;;5031495;28;20052;-79
2023/03/30 07:10:55;;;;;;;21.35;3.08;;;;;;;;;;5042226;28;20045;-79
2023/03/30 07:13:20;;;;;;;24.08;3.10;;;;;;;;;;5041458;28;20049;-78
2023/03/30 07:15:46;;;;;;;21.38;3.30;;;;;;;;;;5036374;28;20029;-79
2023/03/30 07:18:12;;;;;;;28.85;4.25;;;;;;;;;;5032421;28;20041;-78
2023/03/30 07:20:37;;;;;;;20.40;3.03;;;;;;;;;;5031752;28;20099;-79
2023/03/30 07:23:03;;;;;;;32.33;3.92;;;;;;;;;;5047195;28;20107;-79
2023/03/30 07:25:28;;;;;;;19.92;3.20;;;;;;;;;;5042583;28;20045;-78
2023/03/30 07:27:54;;;;;;;29.65;3.60;;;;;;;;;;5042900;28;20033;-78
2023/03/30 07:30:21;;;;;;;25.85;4.32;;;;;;;;;;5037391;28;20120;-78
2023/03/30 07:32:49;;;;;;;25.58;3.63;;;;;;;;;;5036038;28;20052;-78
2023/03/30 07:35:15;;;;;;;39.70;4.93;;;;;;;;;;5024050;28;20037;-78
2023/03/30 07:37:41;;;;;;;30.48;4.93;;;;;;;;;;5050257;28;20471;-78
2023/03/30 07:40:08;;;;;;;29.25;4.15;;;;;;;;;;5046740;28;20037;-78
2023/03/30 07:42:33;;;;;;;22.88;3.53;;;;;;;;;;5036761;28;20122;-78
2023/03/30 07:44:58;;;;;;;23.45;3.88;;;;;;;;;;5044060;28;20423;-79
2023/03/30 07:47:25;;;;;;;42.78;5.70;;;;;;;;;;5040260;28;20068;-78
2023/03/30 07:49:50;;;;;;;29.33;3.58;;;;;;;;;;5037781;28;20034;-78
2023/03/30 07:52:16;;;;;;;25.20;3.35;;;;;;;;;;5035831;28;20029;-78
2023/03/30 07:54:42;;;;;;;24.33;3.08;;;;;;;;;;5032216;28;20037;-79
2023/03/30 07:57:09;;;;;;;25.73;4.30;;;;;;;;;;5040536;28;20095;-78
2023/03/30 07:59:35;;;;;;;17.90;3.40;;;;;;;;;;5046691;28;20099;-78
2023/03/30 08:02:00;;;;;;;33.17;4.05;;;;;;;;;;5048306;28;20428;-78
2023/03/30 08:04:27;;;;;;;24.85;3.50;;;;;;;;;;5046487;28;20100;-78
2023/03/30 08:06:52;;;;;;;27.77;3.95;;;;;;;;;;5050035;28;20033;-77
2023/03/30 08:09:18;;;;;;;23.27;3.85;;;;;;;;;;5039530;28;20395;-78
2023/03/30 08:11:44;;;;;;;33.13;4.78;;;;;;;;;;5040132;28;20045;-78
2023/03/30 08:14:09;;;;;;;24.63;4.07;;;;;;;;;;5034238;28;20124;-79
2023/03/30 08:16:36;;;;;;;26.45;4.03;;;;;;;;;;5032622;28;20034;-78
2023/03/30 08:19:02;;;;;;;32.15;4.90;;;;;;;;;;5038661;28;20037;-79
2023/03/30 08:21:27;;;;;;;23.55;3.33;;;;;;;;;;5027146;28;20940;-79
2023/03/30 08:23:56;;;;;;;25.25;3.28;;;;;;;;;;5038550;28;20390;-78
2023/03/30 08:26:22;;;;;;;29.67;5.30;;;;;;;;;;5038824;28;20052;-79
2023/03/30 08:28:47;;;;;;;20.88;3.95;;;;;;;;;;5036689;28;20401;-79
2023/03/30 08:31:17;;;;;;;27.55;4.20;;;;;;;;;;5036240;28;20114;-79
2023/03/30 08:33:43;;;;;;;29.08;3.78;;;;;;;;;;5043918;28;20384;-80
2023/03/30 08:36:09;;;;;;;23.25;4.18;;;;;;;;;;5039295;28;20041;-79
2023/03/30 08:38:35;;;;;;;25.17;4.38;;;;;;;;;;5046292;28;20045;-78
2023/03/30 08:41:01;;;;;;;27.10;3.95;;;;;;;;;;5033047;28;20064;-78
2023/03/30 08:43:51;;;;;;;29.83;5.10;;;;;;;;;;5032737;28;20056;-79
2023/03/30 08:46:17;;;;;;;30.15;4.57;;;;;;;;;;5033276;28;20045;-79
2023/03/30 08:48:44;;;;;;;21.67;3.78;;;;;;;;;;5034996;28;20041;-78
2023/03/30 08:51:30;;;;;;;22.48;3.90;;;;;;;;;;5045620;28;20116;-79
2023/03/30 08:54:00;;;;;;;20.80;3.67;;;;;;;;;;5039995;28;20044;-78
2023/03/30 08:56:30;;;;;;;27.08;4.00;;;;;;;;;;5044078;28;20083;-78
2023/03/30 08:59:11;;;;;;;23.73;3.75;;;;;;;;;;5041207;28;20032;-78
2023/03/30 09:01:59;;;;;;;25.08;4.03;;;;;;;;;;5039508;28;20108;-80
2023/03/30 09:04:32;;;;;;;27.15;4.00;;;;;;;;;;5030228;28;20040;-79
2023/03/30 09:07:05;;;;;;;40.22;4.35;;;;;;;;;;5028837;28;20037;-78
2023/03/30 09:09:40;;;;;;;28.77;4.28;;;;;;;;;;5038431;28;20073;-78
2023/03/30 09:12:12;;;;;;;27.05;4.32;;;;;;;;;;5020654;28;20041;-79
2023/03/30 09:14:48;;;;;;;26.67;4.38;;;;;;;;;;5040762;28;20027;-79
2023/03/30 09:17:19;;;;;;;25.20;3.95;;;;;;;;;;5039129;28;20036;-79
2023/03/30 09:19:59;;;;;;;31.23;4.43;;;;;;;;;;5045611;28;20024;-78
2023/03/30 09:22:33;;;;;;;35.80;4.70;;;;;;;;;;5042940;28;20044;-79
2023/03/30 09:25:00;;;;;;;29.17;3.78;;;;;;;;;;5026906;28;20033;-78
2023/03/30 09:27:51;;;;;;;18.98;3.58;;;;;;;;;;5038640;28;20041;-79
2023/03/30 09:30:25;;;;;;;26.13;3.72;;;;;;;;;;5026832;28;20032;-79
2023/03/30 09:33:03;;;;;;;20.88;3.55;;;;;;;;;;5040879;28;20036;-79
2023/03/30 09:35:36;;;;;;;30.10;4.90;;;;;;;;;;5036268;28;20115;-78
2023/03/30 09:38:03;;;;;;;22.05;3.60;;;;;;;;;;5042896;28;20040;-79
2023/03/30 09:40:31;;;;;;;27.63;3.67;;;;;;;;;;5037762;28;20091;-79
2023/03/30 09:43:27;;;;;;;28.95;4.47;;;;;;;;;;5044593;28;20056;-79
2023/03/30 09:45:54;;;;;;;26.15;3.42;;;;;;;;;;5041342;28;20086;-79
2023/03/30 09:48:20;;;;;;;28.67;4.03;;;;;;;;;;5029699;28;20037;-79
2023/03/30 09:50:45;;;;;;;23.75;3.80;;;;;;;;;;5034780;28;20046;-79
2023/03/30 09:53:17;;;;;;;21.38;3.47;;;;;;;;;;5027844;28;20045;-79
2023/03/30 09:55:54;;;;;;;22.98;4.13;;;;;;;;;;5029010;28;20049;-79
2023/03/30 09:58:27;;;;;;;23.52;4.03;;;;;;;;;;5034630;28;20037;-80
2023/03/30 10:01:05;;;;;;;26.88;3.70;;;;;;;;;;5030065;28;20046;-80
2023/03/30 10:03:31;;;;;;;28.35;3.60;;;;;;;;;;5038935;28;20141;-79
2023/03/30 10:06:11;;;;;;;19.48;3.47;;;;;;;;;;5020840;28;20112;-79
2023/03/30 10:08:53;;;;;;;23.02;4.00;;;;;;;;;;5039658;28;20092;-79
2023/03/30 10:11:44;;;;;;;28.17;3.90;;;;;;;;;;5032082;28;20108;-79
2023/03/30 10:14:31;;;;;;;21.55;3.28;;;;;;;;;;5025079;28;20443;-79
2023/03/30 10:16:57;;;;;;;20.92;4.40;;;;;;;;;;5040265;28;20903;-79
2023/03/30 10:19:23;;;;;;;24.30;3.95;;;;;;;;;;5038353;28;20049;-79
2023/03/30 10:21:53;;;;;;;21.45;3.42;;;;;;;;;;5041053;28;20045;-79
2023/03/30 10:24:25;;;;;;;19.73;3.40;;;;;;;;;;5035992;28;20447;-79
2023/03/30 10:26:54;;;;;;;23.95;4.07;;;;;;;;;;5039282;28;20090;-80
2023/03/30 10:29:21;;;;;;;17.98;3.10;;;;;;;;;;5044181;28;20037;-79
2023/03/30 10:31:57;;;;;;;26.25;3.60;;;;;;;;;;5037559;28;20041;-79
2023/03/30 10:34:44;;;;;;;21.92;3.58;;;;;;;;;;5036838;28;20057;-79
2023/03/30 10:37:13;;;;;;;22.80;4.82;;;;;;;;;;5031754;28;20037;-80
2023/03/30 10:39:41;;;;;;;28.17;5.18;;;;;;;;;;5029614;28;20485;-79
2023/03/30 10:42:07;;;;;;;26.05;3.70;;;;;;;;;;5028817;28;20095;-79
2023/03/30 10:44:44;;;;;;;29.30;4.07;;;;;;;;;;5034351;28;20033;-79
2023/03/30 10:47:12;;;;;;;21.85;4.13;;;;;;;;;;5033750;28;20041;-79
2023/03/30 10:49:46;;;;;;;18.83;3.28;;;;;;;;;;5037539;28;20116;-79
2023/03/30 10:52:22;;;;;;;20.63;3.55;;;;;;;;;;5043235;28;20112;-79
2023/03/30 10:54:53;;;;;;;22.02;3.78;;;;;;;;;;5036286;28;20453;-79
2023/03/30 10:57:21;;;;;;;27.10;3.90;;;;;;;;;;5024006;28;20047;-79
2023/03/30 11:00:17;;;;;;;20.30;3.75;;;;;;;;;;5035358;28;20053;-79
2023/03/30 11:02:51;;;;;;;26.10;4.05;;;;;;;;;;5015236;28;20404;-79
2023/03/30 11:05:25;;;;;;;25.17;4.63;;;;;;;;;;5037520;28;20030;-79
2023/03/30 11:08:00;;;;;;;20.85;4.35;;;;;;;;;;5040040;28;20048;-79
2023/03/30 11:10:29;;;;;;;23.50;3.83;;;;;;;;;;5031460;28;20041;-79
2023/03/30 11:13:00;;;;;;;22.67;3.10;;;;;;;;;;5035475;28;20080;-79
2023/03/30 11:15:32;;;;;;;24.85;3.63;;;;;;;;;;5036990;28;20075;-79
2023/03/30 11:18:16;;;;;;;16.85;3.22;;;;;;;;;;5035643;28;20041;-80
2023/03/30 11:20:51;;;;;;;29.05;4.50;;;;;;;;;;5034892;28;20029;-79
2023/03/30 11:23:18;;;;;;;30.20;4.25;;;;;;;;;;5039299;28;20037;-79
2023/03/30 11:26:02;;;;;;;21.23;3.30;;;;;;;;;;5036098;28;20099;-79
2023/03/30 11:28:35;;;;;;;22.98;4.10;;;;;;;;;;5038079;28;20492;-79
2023/03/30 11:31:12;;;;;;;19.35;3.42;;;;;;;;;;5026061;28;20120;-79
2023/03/30 11:33:41;;;;;;;21.23;3.85;;;;;;;;;;5036591;28;20044;-79
2023/03/30 11:36:42;;;;;;;20.23;3.00;;;;;;;;;;5028753;28;20091;-79
2023/03/30 11:39:13;;;;;;;25.83;4.07;;;;;;;;;;5008169;28;20124;-79
2023/03/30 11:41:47;;;;;;;21.23;3.25;;;;;;;;;;5029210;28;20083;-79
2023/03/30 11:44:13;;;;;;;23.70;3.28;;;;;;;;;;5029162;28;20041;-79
2023/03/30 11:46:57;;;;;;;20.40;2.90;;;;;;;;;;5033535;28;20033;-79
2023/03/30 11:49:37;;;;;;;17.80;2.72;;;;;;;;;;5035250;28;20039;-79
2023/03/30 11:52:11;;;;;;;19.30;3.53;;;;;;;;;;5031262;28;20060;-79
2023/03/30 11:54:52;;;;;;;18.98;3.13;;;;;;;;;;5038916;28;20101;-80
2023/03/30 11:57:17;;;;;;;17.67;3.10;;;;;;;;;;5031736;28;20360;-80
2023/03/30 11:59:45;;;;;;;13.52;2.50;;;;;;;;;;5037029;28;20052;-79
2023/03/30 12:02:17;;;;;;;17.20;2.90;;;;;;;;;;5042034;28;20112;-79
2023/03/30 12:05:05;;;;;;;21.15;2.83;;;;;;;;;;5036421;28;20073;-80
2023/03/30 12:07:40;;;;;;;18.23;3.70;;;;;;;;;;5036589;28;20436;-80
2023/03/30 12:10:15;;;;;;;14.60;2.80;;;;;;;;;;5038588;28;20043;-79
2023/03/30 12:12:41;;;;;;;20.45;3.88;;;;;;;;;;5021552;28;20052;-79
2023/03/30 12:15:39;;;;;;;16.98;2.65;;;;;;;;;;5041687;28;20041;-79
2023/03/30 12:18:13;;;;;;;16.38;2.83;;;;;;;;;;5015189;28;20041;-79
2023/03/30 12:21:12;;;;;;;15.68;3.13;;;;;;;;;;5025038;28;20045;-80
2023/03/30 12:23:50;;;;;;;18.25;2.20;;;;;;;;;;5033997;28;20377;-79
2023/03/30 12:26:29;;;;;;;12.50;2.13;;;;;;;;;;5035436;28;20041;-79
2023/03/30 12:29:09;;;;;;;19.95;3.78;;;;;;;;;;5047123;28;20116;-79
2023/03/30 12:32:04;;;;;;;18.90;3.45;;;;;;;;;;5046359;28;20041;-79
2023/03/30 12:34:35;;;;;;;15.55;2.50;;;;;;;;;;5044865;28;20073;-80
2023/03/30 12:37:27;;;;;;;12.95;3.35;;;;;;;;;;5024630;28;20047;-80
2023/03/30 12:40:04;;;;;;;22.98;3.38;;;;;;;;;;5043543;28;20052;-79
2023/03/30 12:42:34;;;;;;;16.27;2.90;;;;;;;;;;5034052;28;20045;-80
2023/03/30 12:45:21;;;;;;;17.40;3.00;;;;;;;;;;5026493;28;20044;-79
2023/03/30 12:47:50;;;;;;;12.40;2.47;;;;;;;;;;5040967;28;20037;-79
2023/03/30 12:50:42;;;;;;;14.85;2.70;;;;;;;;;;5016646;28;20068;-79
2023/03/30 12:53:40;;;;;;;24.95;3.38;;;;;;;;;;5028070;28;20388;-80
2023/03/30 12:56:22;;;;;;;16.30;2.78;;;;;;;;;;5023232;28;20072;-80
2023/03/30 12:59:00;;;;;;;18.67;2.70;;;;;;;;;;5022140;28;20041;-80
2023/03/30 13:01:44;;;;;;;17.60;2.88;;;;;;;;;;5032974;28;20120;-80
2023/03/30 13:04:16;;;;;;;12.07;2.30;;;;;;;;;;5032636;28;20037;-80
2023/03/30 13:06:58;;;;;;;25.70;3.17;;;;;;;;;;5039322;28;20044;-80
2023/03/30 13:09:27;;;;;;;23.45;3.20;;;;;;;;;;5044441;28;20124;-79
2023/03/30 13:11:53;;;;;;;19.48;2.78;;;;;;;;;;5033564;28;20140;-79
2023/03/30 13:14:25;;;;;;;23.75;3.55;;;;;;;;;;5042197;28;20522;-79
2023/03/30 13:16:51;;;;;;;19.75;2.90;;;;;;;;;;5034738;28;20519;-79
2023/03/30 13:19:32;;;;;;;22.27;3.75;;;;;;;;;;5046379;28;20052;-79
2023/03/30 13:22:22;;;;;;;10.65;2.55;;;;;;;;;;5035911;28;20041;-79
2023/03/30 13:24:52;;;;;;;18.55;3.65;;;;;;;;;;5024558;28;20041;-79
2023/03/30 13:27:17;;;;;;;14.98;2.70;;;;;;;;;;5045263;28;20046;-80
2023/03/30 13:30:10;;;;;;;20.52;3.50;;;;;;;;;;5037988;28;20481;-79
2023/03/30 13:33:09;;;;;;;17.07;2.70;;;;;;;;;;5034782;28;20046;-80
2023/03/30 13:35:51;;;;;;;8.82;2.00;;;;;;;;;;5034206;28;20268;-79
2023/03/30 13:38:23;;;;;;;15.48;2.15;;;;;;;;;;5038121;28;20037;-80
2023/03/30 13:41:07;;;;;;;16.20;2.20;;;;;;;;;;5030759;28;20046;-79
2023/03/30 13:43:38;;;;;;;20.42;2.88;;;;;;;;;;5031951;28;20047;-80
2023/03/30 13:46:22;;;;;;;16.23;2.60;;;;;;;;;;5037175;28;20401;-79
2023/03/30 13:49:12;;;;;;;14.43;1.90;;;;;;;;;;5024711;28;20061;-79
2023/03/30 13:51:38;;;;;;;14.02;2.25;;;;;;;;;;5033006;28;20044;-79
2023/03/30 13:54:07;;;;;;;14.77;2.47;;;;;;;;;;5049201;28;20075;-80
2023/03/30 13:56:35;;;;;;;11.85;2.13;;;;;;;;;;5046157;28;20041;-80
2023/03/30 13:59:11;;;;;;;10.90;2.22;;;;;;;;;;5037426;28;20037;-80
2023/03/30 14:01:38;;;;;;;13.70;2.00;;;;;;;;;;5037368;28;20041;-79
2023/03/30 14:04:04;;;;;;;16.33;3.42;;;;;;;;;;5041819;28;21091;-80
2023/03/30 14:06:33;;;;;;;15.63;2.55;;;;;;;;;;5045611;28;20115;-80
2023/03/30 14:09:08;;;;;;;16.23;3.13;;;;;;;;;;5039214;28;20519;-79
2023/03/30 14:11:36;;;;;;;21.05;2.78;;;;;;;;;;5031454;28;20033;-80
2023/03/30 14:14:03;;;;;;;16.60;2.35;;;;;;;;;;5031881;28;20385;-80
2023/03/30 14:16:34;;;;;;;12.82;1.90;;;;;;;;;;5038304;28;20029;-80
2023/03/30 14:19:13;;;;;;;16.80;3.38;;;;;;;;;;5031324;28;20041;-80
2023/03/30 14:21:42;;;;;;;13.32;2.35;;;;;;;;;;5032145;28;20037;-80
2023/03/30 14:24:12;;;;;;;12.27;2.05;;;;;;;;;;5038231;28;20037;-80
2023/03/30 14:26:40;;;;;;;11.65;2.00;;;;;;;;;;5039162;28;20037;-80
2023/03/30 14:29:09;;;;;;;11.30;2.08;;;;;;;;;;5032763;28;20041;-80
2023/03/30 14:31:40;;;;;;;13.98;2.58;;;;;;;;;;5030416;28;20029;-80
2023/03/30 14:34:25;;;;;;;16.80;2.10;;;;;;;;;;5042419;28;20161;-80
2023/03/30 14:36:52;;;;;;;16.30;2.92;;;;;;;;;;5043389;28;20124;-80
2023/03/30 14:39:21;;;;;;;19.42;2.90;;;;;;;;;;5031980;28;20087;-80
2023/03/30 14:41:46;;;;;;;14.55;2.15;;;;;;;;;;5036075;28;20038;-80
2023/03/30 14:44:12;;;;;;;16.38;2.55;;;;;;;;;;5030963;28;20029;-80
2023/03/30 14:46:41;;;;;;;15.57;2.40;;;;;;;;;;5019931;28;20041;-80
2023/03/30 14:49:10;;;;;;;12.05;2.67;;;;;;;;;;5030055;28;20124;-80
2023/03/30 14:51:39;;;;;;;11.30;2.00;;;;;;;;;;5042737;28;20472;-80
2023/03/30 14:54:05;;;;;;;7.95;1.85;;;;;;;;;;5029473;28;20051;-80